createdAt,value
2016-10-18T00:00:32.771Z,75.24
2016-10-18T00:01:46.335Z,75.04
2016-10-18T00:02:59.971Z,75.24
2016-10-18T00:04:13.239Z,75.62
2016-10-18T00:05:26.809Z,76.11
2016-10-18T00:06:40.134Z,76.31
2016-10-18T00:07:53.659Z,76.11
2016-10-18T00:09:07.222Z,76.4
2016-10-18T00:10:20.944Z,76.11
2016-10-18T00:11:34.003Z,76.11
2016-10-18T00:12:47.513Z,75.82
2016-10-18T00:14:01.072Z,75.72
2016-10-18T00:15:14.160Z,75.62
2016-10-18T00:16:27.783Z,75.82
2016-10-18T00:17:41.016Z,76.11
2016-10-18T00:18:54.574Z,75.62
2016-10-18T00:20:08.188Z,76.01
2016-10-18T00:21:21.780Z,76.11
2016-10-18T00:22:34.264Z,75.82
2016-10-18T00:23:47.875Z,75.62
2016-10-18T00:25:01.537Z,76.31
2016-10-18T00:26:14.700Z,75.62
2016-10-18T00:27:27.755Z,75.72
2016-10-18T00:28:41.380Z,75.34
2016-10-18T00:29:54.360Z,75.82
2016-10-18T00:31:07.612Z,76.69
2016-10-18T00:32:20.641Z,76.5
2016-10-18T00:33:34.162Z,76.89
2016-10-18T00:34:47.727Z,77.37
2016-10-18T00:36:00.774Z,78.28
2016-10-18T00:37:14.317Z,78.54
2016-10-18T00:38:27.401Z,82.13
2016-10-18T00:39:41.108Z,86.4
2016-10-18T00:40:54.761Z,87.86
2016-10-18T00:42:08.381Z,88.64
2016-10-18T00:43:21.410Z,88.34
2016-10-18T00:44:34.960Z,88.83
2016-10-18T00:45:48.592Z,88.64
2016-10-18T00:47:01.666Z,87.18
2016-10-18T00:48:15.354Z,86.85
2016-10-18T00:49:28.937Z,87.33
2016-10-18T00:50:42.546Z,88.01
2016-10-18T00:51:55.537Z,88.01
2016-10-18T00:53:08.574Z,88.2
2016-10-18T00:54:22.065Z,88.79
2016-10-18T00:55:35.597Z,89.23
2016-10-18T00:56:49.168Z,89.61
2016-10-18T00:58:02.771Z,89.81
2016-10-18T00:59:16.351Z,90.1
2016-10-18T01:00:29.937Z,90.73
2016-10-18T01:01:43.567Z,90.48
2016-10-18T01:02:57.132Z,90.39
2016-10-18T01:04:10.699Z,90.54
2016-10-18T01:05:24.241Z,90.73
2016-10-18T01:06:37.857Z,90.93
2016-10-18T01:07:51.537Z,90.64
2016-10-18T01:09:04.625Z,91.51
2016-10-18T01:10:18.385Z,92.19
2016-10-18T01:11:31.900Z,91.99
2016-10-18T01:12:45.509Z,92.09
2016-10-18T01:13:59.077Z,91.51
2016-10-18T01:15:12.685Z,91.41
2016-10-18T01:16:25.752Z,91.61
2016-10-18T01:17:39.344Z,92.09
2016-10-18T01:18:52.639Z,91.89
2016-10-18T01:20:06.160Z,92.38
2016-10-18T01:21:19.789Z,92.58
2016-10-18T01:22:33.300Z,92.77
2016-10-18T01:23:46.330Z,93.26
2016-10-18T01:24:59.931Z,93.6
2016-10-18T01:26:13.441Z,93.98
2016-10-18T01:27:26.470Z,93.3
2016-10-18T01:28:40.041Z,93.7
2016-10-18T01:29:53.577Z,94.08
2016-10-18T01:31:06.639Z,94.04
2016-10-18T01:32:20.236Z,93.35
2016-10-18T01:33:33.811Z,93.6
2016-10-18T01:34:47.318Z,93.35
2016-10-18T01:36:00.403Z,93.7
2016-10-18T01:37:13.399Z,93.21
2016-10-18T01:38:26.976Z,92.77
2016-10-18T01:39:40.215Z,93.26
2016-10-18T01:40:53.260Z,92.77
2016-10-18T01:42:06.548Z,92.58
2016-10-18T01:43:19.643Z,92.49
2016-10-18T01:44:32.658Z,92.49
2016-10-18T01:45:45.926Z,92.29
2016-10-18T01:46:59.492Z,91.71
2016-10-18T01:48:13.122Z,91.71
2016-10-18T01:49:25.684Z,91.52
2016-10-18T01:50:39.331Z,92.1
2016-10-18T01:51:52.911Z,92.68
2016-10-18T01:53:06.427Z,92.73
2016-10-18T01:54:19.982Z,93.02
2016-10-18T01:55:33.024Z,92.63
2016-10-18T01:56:45.517Z,92.73
2016-10-18T01:57:59.037Z,93.21
2016-10-18T01:59:12.648Z,93.7
2016-10-18T02:00:26.387Z,93.94
2016-10-18T02:01:39.978Z,94.37
2016-10-18T02:02:53.496Z,93.99
2016-10-18T02:04:06.557Z,94.43
2016-10-18T02:05:20.119Z,94.43
2016-10-18T02:06:33.735Z,94.23
2016-10-18T02:07:46.797Z,94.52
2016-10-18T02:09:00.326Z,93.7
2016-10-18T02:10:13.886Z,93.79
2016-10-18T02:11:26.934Z,94.47
2016-10-18T02:12:40.487Z,94.43
2016-10-18T02:13:53.517Z,94.43
2016-10-18T02:15:06.776Z,94.71
2016-10-18T02:16:20.322Z,95.29
2016-10-18T02:17:33.866Z,95.59
2016-10-18T02:18:47.482Z,95.93
2016-10-18T02:20:00.543Z,95.73
2016-10-18T02:21:14.340Z,95.73
2016-10-18T02:22:27.627Z,96.17
2016-10-18T02:23:41.306Z,96.6
2016-10-18T02:24:54.867Z,96.7
2016-10-18T02:26:07.882Z,97.28
2016-10-18T02:27:21.210Z,96.7
2016-10-18T02:28:34.775Z,97.09
2016-10-18T02:29:48.126Z,97.38
2016-10-18T02:31:01.710Z,97.47
2016-10-18T02:32:14.768Z,97.38
2016-10-18T02:33:27.793Z,97.09
2016-10-18T02:34:41.321Z,96.51
2016-10-18T02:35:54.871Z,96.89
2016-10-18T02:37:07.145Z,96.51
2016-10-18T02:38:20.226Z,96.6
2016-10-18T02:39:33.502Z,96.89
2016-10-18T02:40:46.502Z,96.6
2016-10-18T02:41:59.519Z,96.89
2016-10-18T02:43:13.029Z,97.18
2016-10-18T02:44:26.621Z,96.7
2016-10-18T02:45:40.220Z,96.6
2016-10-18T02:46:53.730Z,96.51
2016-10-18T02:48:07.384Z,96.89
2016-10-18T02:49:19.928Z,97.28
2016-10-18T02:50:33.499Z,97.42
2016-10-18T02:51:47.245Z,97.81
2016-10-18T02:53:00.839Z,97.81
2016-10-18T02:54:14.473Z,98.2
2016-10-18T02:55:28.060Z,97.72
2016-10-18T02:56:41.635Z,97.81
2016-10-18T02:57:55.168Z,98
2016-10-18T02:59:08.493Z,97.33
2016-10-18T03:00:21.997Z,97.81
2016-10-18T03:01:35.584Z,98
2016-10-18T03:03:19.697Z,97.42
2016-10-18T03:04:33.346Z,97.62
2016-10-18T03:05:46.893Z,97.04
2016-10-18T03:07:00.453Z,97.42
2016-10-18T03:08:13.468Z,96.94
2016-10-18T03:09:27.052Z,97.42
2016-10-18T03:10:40.575Z,97.33
2016-10-18T03:11:53.624Z,97.04
2016-10-18T03:13:07.280Z,97.52
2016-10-18T03:14:20.844Z,96.84
2016-10-18T03:15:34.399Z,96.94
2016-10-18T03:16:47.437Z,97.33
2016-10-18T03:18:00.975Z,97.14
2016-10-18T03:19:14.528Z,96.75
2016-10-18T03:20:28.139Z,97.04
2016-10-18T03:21:41.717Z,97.04
2016-10-18T03:22:55.269Z,97.38
2016-10-18T03:24:08.447Z,97.28
2016-10-18T03:25:22.092Z,97.28
2016-10-18T03:26:35.357Z,97.77
2016-10-18T03:27:48.862Z,97.67
2016-10-18T03:29:02.583Z,97.86
2016-10-18T03:30:16.178Z,97.57
2016-10-18T03:31:29.266Z,96.7
2016-10-18T03:32:42.758Z,97.57
2016-10-18T03:33:56.349Z,97.47
2016-10-18T03:35:09.911Z,97.28
2016-10-18T03:36:23.543Z,97.47
2016-10-18T03:37:36.645Z,97.28
2016-10-18T03:38:50.212Z,97.86
2016-10-18T03:40:03.831Z,97.86
2016-10-18T03:41:17.405Z,98.15
2016-10-18T03:42:30.958Z,98.54
2016-10-18T03:43:44.547Z,98.25
2016-10-18T03:44:58.087Z,97.86
2016-10-18T03:46:11.728Z,97.86
2016-10-18T03:47:25.298Z,97.91
2016-10-18T03:48:38.875Z,98.44
2016-10-18T03:49:52.393Z,97.81
2016-10-18T03:51:06.033Z,98.05
2016-10-18T03:52:19.260Z,98
2016-10-18T03:53:32.836Z,98.25
2016-10-18T03:54:46.384Z,98.49
2016-10-18T03:55:59.899Z,98.39
2016-10-18T03:57:12.882Z,98.58
2016-10-18T03:58:26.440Z,98.39
2016-10-18T03:59:40.052Z,98.44
2016-10-18T04:00:53.607Z,97.96
2016-10-18T04:02:06.656Z,97.77
2016-10-18T04:03:20.169Z,98.25
2016-10-18T04:04:33.189Z,98.05
2016-10-18T04:05:46.727Z,98.15
2016-10-18T04:06:59.766Z,98.05
2016-10-18T04:08:12.304Z,97.28
2016-10-18T04:09:25.898Z,97.47
2016-10-18T04:10:39.446Z,97.28
2016-10-18T04:11:52.980Z,97.77
2016-10-18T04:13:05.997Z,97.57
2016-10-18T04:14:18.982Z,98.1
2016-10-18T04:15:32.647Z,98.2
2016-10-18T04:16:45.101Z,98.1
2016-10-18T04:17:58.669Z,97.81
2016-10-18T04:19:12.266Z,97.91
2016-10-18T04:20:25.803Z,97.72
2016-10-18T04:21:39.408Z,97.81
2016-10-18T04:22:52.736Z,97.72
2016-10-18T04:24:06.348Z,97.52
2016-10-18T04:25:19.935Z,97.67
2016-10-18T04:26:33.501Z,97.91
2016-10-18T04:27:46.565Z,98.1
2016-10-18T04:29:00.078Z,98.3
2016-10-18T04:30:13.639Z,97.72
2016-10-18T04:31:27.222Z,98.39
2016-10-18T04:32:40.827Z,98.58
2016-10-18T04:33:54.400Z,98.2
2016-10-18T04:35:07.952Z,98.39
2016-10-18T04:36:21.790Z,98
2016-10-18T04:37:35.317Z,97.91
2016-10-18T04:38:48.917Z,98.1
2016-10-18T04:40:02.476Z,97.81
2016-10-18T04:41:15.429Z,97.81
2016-10-18T04:42:28.445Z,97.91
2016-10-18T04:43:41.977Z,98.58
2016-10-18T04:44:55.481Z,98.58
2016-10-18T04:46:08.570Z,97.81
2016-10-18T04:47:22.177Z,97.91
2016-10-18T04:48:35.707Z,98.49
2016-10-18T04:49:48.699Z,98.3
2016-10-18T04:51:02.247Z,97.91
2016-10-18T04:52:15.758Z,98
2016-10-18T04:53:28.548Z,97.81
2016-10-18T04:54:42.111Z,97.72
2016-10-18T04:55:55.131Z,97.33
2016-10-18T04:57:08.144Z,97.72
2016-10-18T04:58:21.862Z,98.3
2016-10-18T04:59:34.895Z,97.72
2016-10-18T05:00:48.784Z,97.72
2016-10-18T05:02:01.754Z,97.81
2016-10-18T05:03:14.820Z,97.72
2016-10-18T05:04:27.386Z,97.91
2016-10-18T05:05:40.649Z,98.2
2016-10-18T05:06:53.632Z,98.58
2016-10-18T05:08:06.710Z,97.91
2016-10-18T05:09:20.320Z,98.2
2016-10-18T05:10:33.877Z,97.91
2016-10-18T05:11:46.899Z,97.91
2016-10-18T05:13:00.462Z,98.1
2016-10-18T05:14:14.215Z,97.24
2016-10-18T05:15:27.262Z,97.42
2016-10-18T05:16:40.818Z,97.62
2016-10-18T05:17:54.397Z,97.81
2016-10-18T05:19:07.909Z,97.91
2016-10-18T05:20:20.388Z,97.77
2016-10-18T05:21:33.944Z,97.91
2016-10-18T05:22:47.509Z,97.91
2016-10-18T05:24:00.565Z,97.72
2016-10-18T05:25:13.859Z,97.72
2016-10-18T05:26:27.454Z,97.52
2016-10-18T05:27:41.037Z,97.72
2016-10-18T05:28:54.706Z,97.72
2016-10-18T05:30:08.274Z,97.72
2016-10-18T05:31:21.876Z,97.81
2016-10-18T05:32:34.906Z,97.81
2016-10-18T05:33:48.688Z,97.52
2016-10-18T05:35:02.006Z,97.33
2016-10-18T05:36:15.149Z,97.52
2016-10-18T05:37:28.668Z,97.33
2016-10-18T05:38:41.657Z,96.94
2016-10-18T05:39:55.238Z,96.17
2016-10-18T05:41:08.245Z,96.51
2016-10-18T05:42:20.783Z,96.41
2016-10-18T05:43:34.397Z,96.84
2016-10-18T05:44:47.963Z,96.75
2016-10-18T05:46:01.489Z,97.04
2016-10-18T05:47:14.433Z,97.14
2016-10-18T05:48:28.055Z,96.56
2016-10-18T05:49:41.653Z,96.94
2016-10-18T05:50:54.969Z,96.66
2016-10-18T05:52:08.491Z,97.14
2016-10-18T05:53:22.017Z,97.33
2016-10-18T05:54:35.296Z,97.04
2016-10-18T05:55:48.327Z,97.24
2016-10-18T05:57:00.777Z,96.46
2016-10-18T05:58:14.534Z,96.46
2016-10-18T05:59:28.094Z,96.56
2016-10-18T06:00:41.622Z,96.56
2016-10-18T06:01:55.132Z,96.56
2016-10-18T06:03:08.174Z,96.56
2016-10-18T06:04:21.864Z,96.26
2016-10-18T06:05:35.501Z,96.41
2016-10-18T06:06:49.092Z,96.17
2016-10-18T06:08:02.170Z,95.73
2016-10-18T06:09:15.716Z,96.03
2016-10-18T06:10:28.747Z,95.64
2016-10-18T06:11:42.360Z,95.93
2016-10-18T06:12:55.939Z,95.88
2016-10-18T06:14:09.216Z,95.68
2016-10-18T06:15:22.212Z,95.78
2016-10-18T06:16:35.246Z,95.68
2016-10-18T06:17:48.775Z,96.08
2016-10-18T06:19:02.336Z,96.08
2016-10-18T06:20:15.473Z,96.17
2016-10-18T06:21:28.975Z,96.36
2016-10-18T06:22:41.688Z,96.17
2016-10-18T06:23:54.967Z,96.56
2016-10-18T06:25:07.480Z,96.26
2016-10-18T06:26:21.029Z,95.68
2016-10-18T06:27:34.093Z,95.98
2016-10-18T06:28:47.701Z,96.08
2016-10-18T06:30:01.320Z,95.88
2016-10-18T06:31:14.871Z,96.08
2016-10-18T06:32:27.927Z,96.22
2016-10-18T06:33:41.551Z,96.26
2016-10-18T06:34:55.090Z,96.51
2016-10-18T06:36:08.631Z,96.08
2016-10-18T06:37:21.394Z,95.73
2016-10-18T06:38:35.415Z,96.41
2016-10-18T06:39:49.047Z,96.84
2016-10-18T06:41:02.628Z,97.52
2016-10-18T06:42:16.226Z,96.94
2016-10-18T06:43:29.283Z,97.33
2016-10-18T06:44:42.895Z,96.94
2016-10-18T06:45:56.457Z,96.84
2016-10-18T06:47:09.975Z,97.24
2016-10-18T06:48:23.559Z,97.91
2016-10-18T06:49:36.576Z,98
2016-10-18T06:50:50.115Z,97.72
2016-10-18T06:52:03.699Z,97.42
2016-10-18T06:53:17.387Z,97.52
2016-10-18T06:54:30.935Z,97.33
2016-10-18T06:55:44.537Z,97.24
2016-10-18T06:56:57.607Z,97.24
2016-10-18T06:58:11.361Z,97.33
2016-10-18T06:59:24.379Z,97.33
2016-10-18T07:00:37.990Z,96.94
2016-10-18T07:01:51.797Z,96.56
2016-10-18T07:03:05.131Z,96.56
2016-10-18T07:04:18.711Z,96.36
2016-10-18T07:05:31.734Z,96.56
2016-10-18T07:06:44.761Z,96.46
2016-10-18T07:07:57.246Z,96.46
2016-10-18T07:09:10.783Z,96.26
2016-10-18T07:10:24.361Z,95.59
2016-10-18T07:11:37.929Z,95.64
2016-10-18T07:12:51.443Z,95.73
2016-10-18T07:14:05.021Z,96.12
2016-10-18T07:15:17.502Z,95.54
2016-10-18T07:16:31.029Z,95.64
2016-10-18T07:17:44.274Z,95.73
2016-10-18T07:18:58.467Z,95.54
2016-10-18T07:20:11.760Z,95.88
2016-10-18T07:21:25.271Z,95.93
2016-10-18T07:22:38.617Z,95.93
2016-10-18T07:23:52.185Z,96.03
2016-10-18T07:25:05.728Z,95.35
2016-10-18T07:26:19.331Z,95.25
2016-10-18T07:27:32.889Z,95.25
2016-10-18T07:28:46.117Z,96.03
2016-10-18T07:29:59.124Z,94.96
2016-10-18T07:31:12.397Z,95.15
2016-10-18T07:32:25.428Z,95.45
2016-10-18T07:33:38.970Z,96.12
2016-10-18T07:34:52.538Z,95.83
2016-10-18T07:36:05.539Z,95.73
2016-10-18T07:37:19.110Z,95.54
2016-10-18T07:38:32.152Z,96.03
2016-10-18T07:39:45.817Z,95.25
2016-10-18T07:40:59.326Z,95.25
2016-10-18T07:42:12.936Z,95.93
2016-10-18T07:43:26.212Z,95.73
2016-10-18T07:44:39.795Z,95.64
2016-10-18T07:45:52.747Z,94.96
2016-10-18T07:47:06.314Z,95.06
2016-10-18T07:48:19.924Z,95.35
2016-10-18T07:49:33.454Z,95.35
2016-10-18T07:50:47.077Z,95.15
2016-10-18T07:52:00.112Z,95.15
2016-10-18T07:53:13.625Z,95.25
2016-10-18T07:54:26.904Z,95.06
2016-10-18T07:55:39.927Z,94.87
2016-10-18T07:56:53.497Z,94.77
2016-10-18T07:58:05.987Z,95.06
2016-10-18T07:59:19.600Z,95.06
2016-10-18T08:00:33.149Z,95.25
2016-10-18T08:01:46.126Z,95.35
2016-10-18T08:02:59.138Z,95.3
2016-10-18T08:04:12.723Z,96.03
2016-10-18T08:05:26.328Z,95.06
2016-10-18T08:06:39.395Z,94.96
2016-10-18T08:07:52.984Z,94.77
2016-10-18T08:09:06.029Z,95.45
2016-10-18T08:10:19.616Z,94.96
2016-10-18T08:11:32.627Z,95.35
2016-10-18T08:12:46.129Z,95.15
2016-10-18T08:13:59.195Z,95.45
2016-10-18T08:15:12.813Z,95.25
2016-10-18T08:16:26.425Z,94.96
2016-10-18T08:17:39.994Z,95.93
2016-10-18T08:18:53.081Z,95.5
2016-10-18T08:20:06.652Z,95.88
2016-10-18T08:21:19.739Z,95.68
2016-10-18T08:22:33.420Z,96.17
2016-10-18T08:23:46.983Z,96.46
2016-10-18T08:25:31.640Z,97.33
2016-10-18T08:26:45.211Z,97.67
2016-10-18T08:27:58.736Z,98.15
2016-10-18T08:29:11.803Z,97.67
2016-10-18T08:30:25.345Z,97.77
2016-10-18T08:31:38.909Z,97.19
2016-10-18T08:32:52.458Z,97.38
2016-10-18T08:34:36.818Z,97.19
2016-10-18T08:35:50.341Z,97.57
2016-10-18T08:37:03.415Z,97.38
2016-10-18T08:38:16.930Z,97.19
2016-10-18T08:39:30.008Z,97.33
2016-10-18T08:40:43.559Z,97.04
2016-10-18T08:41:57.168Z,96.75
2016-10-18T08:43:10.289Z,97.24
2016-10-18T08:44:23.886Z,96.94
2016-10-18T08:45:37.454Z,97.42
2016-10-18T08:46:51.046Z,97.47
2016-10-18T08:48:04.586Z,97.28
2016-10-18T08:49:18.162Z,97.62
2016-10-18T08:50:31.787Z,98.15
2016-10-18T08:51:45.455Z,98.44
2016-10-18T08:52:58.711Z,98.15
2016-10-18T08:54:12.323Z,99.11
2016-10-18T08:55:25.342Z,99.5
2016-10-18T08:56:38.311Z,99.02
2016-10-18T08:57:51.754Z,99.21
2016-10-18T08:59:05.354Z,98.92
2016-10-18T09:00:18.905Z,99.11
2016-10-18T09:01:32.452Z,98.92
2016-10-18T09:02:46.005Z,99.79
2016-10-18T09:03:59.599Z,99.99
2016-10-18T09:05:13.176Z,99.79
2016-10-18T09:06:26.798Z,99.79
2016-10-18T09:07:40.410Z,99.5
2016-10-18T09:08:53.927Z,99.79
2016-10-18T09:10:06.964Z,99.99
2016-10-18T09:11:20.514Z,99.99
2016-10-18T09:12:33.554Z,99.4
2016-10-18T09:13:47.074Z,99.5
2016-10-18T09:15:00.412Z,99.5
2016-10-18T09:16:14.004Z,99.31
2016-10-18T09:17:27.590Z,99.5
2016-10-18T09:18:41.524Z,99.5
2016-10-18T09:19:55.283Z,99.99
2016-10-18T09:21:08.360Z,99.88
2016-10-18T09:22:21.956Z,99.99
2016-10-18T09:23:35.022Z,99.69
2016-10-18T09:24:48.787Z,99.98
2016-10-18T09:26:02.373Z,99.6
2016-10-18T09:27:14.907Z,99.69
2016-10-18T09:28:28.486Z,99.02
2016-10-18T09:29:42.081Z,99.02
2016-10-18T09:30:55.595Z,98.54
2016-10-18T09:32:09.179Z,98.54
2016-10-18T09:33:22.877Z,98.54
2016-10-18T09:34:36.143Z,98.49
2016-10-18T09:35:49.190Z,98.44
2016-10-18T09:37:02.751Z,99.21
2016-10-18T09:38:15.868Z,98.34
2016-10-18T09:39:29.486Z,98.88
2016-10-18T09:40:42.542Z,98.68
2016-10-18T09:41:55.675Z,98.73
2016-10-18T09:43:09.315Z,98.49
2016-10-18T09:44:22.303Z,99.26
2016-10-18T09:45:35.818Z,98.49
2016-10-18T09:46:49.375Z,99.07
2016-10-18T09:48:02.905Z,98.78
2016-10-18T09:49:15.927Z,98.88
2016-10-18T09:50:29.439Z,98.39
2016-10-18T09:51:41.924Z,98.68
2016-10-18T09:52:55.513Z,98.83
2016-10-18T09:54:09.048Z,98.68
2016-10-18T09:55:22.100Z,98.68
2016-10-18T09:56:35.119Z,99.16
2016-10-18T09:57:48.565Z,99.65
2016-10-18T09:59:02.147Z,99.98
2016-10-18T10:00:15.726Z,99.84
2016-10-18T10:01:29.240Z,99.74
2016-10-18T10:02:42.840Z,99.74
2016-10-18T10:03:55.847Z,99.88
2016-10-18T10:05:09.430Z,99.21
2016-10-18T10:06:22.989Z,98.88
2016-10-18T10:07:36.023Z,98.88
2016-10-18T10:08:49.584Z,99.45
2016-10-18T10:10:03.199Z,98.88
2016-10-18T10:11:16.255Z,99.26
2016-10-18T10:12:29.812Z,99.36
2016-10-18T10:13:42.501Z,99.16
2016-10-18T10:14:56.104Z,99.65
2016-10-18T10:16:09.719Z,99.16
2016-10-18T10:17:22.790Z,98.78
2016-10-18T10:18:35.789Z,98.68
2016-10-18T10:19:49.396Z,99.16
2016-10-18T10:21:01.941Z,99.65
2016-10-18T10:22:14.945Z,99.99
2016-10-18T10:23:27.409Z,99.16
2016-10-18T10:24:40.425Z,98.68
2016-10-18T10:25:54.036Z,98.39
2016-10-18T10:27:07.592Z,98.54
2016-10-18T10:28:21.117Z,98.54
2016-10-18T10:29:34.629Z,99.02
2016-10-18T10:30:47.665Z,99.07
2016-10-18T10:32:01.201Z,99.16
2016-10-18T10:33:14.188Z,98.73
2016-10-18T10:34:27.756Z,98.54
2016-10-18T10:35:40.760Z,99.31
2016-10-18T10:36:54.300Z,99.26
2016-10-18T10:38:07.848Z,99.16
2016-10-18T10:39:21.388Z,99.16
2016-10-18T10:40:35.334Z,99.07
2016-10-18T10:41:48.893Z,99.26
2016-10-18T10:43:01.921Z,99.07
2016-10-18T10:44:15.486Z,99.74
2016-10-18T10:45:28.494Z,99.79
2016-10-18T10:46:41.809Z,99.65
2016-10-18T10:47:55.350Z,99.02
2016-10-18T10:49:08.361Z,99.02
2016-10-18T10:50:21.665Z,98.73
2016-10-18T10:51:35.160Z,98.83
2016-10-18T10:52:48.987Z,98.83
2016-10-18T10:54:02.012Z,98.73
2016-10-18T10:55:15.754Z,98.63
2016-10-18T10:56:29.328Z,98.35
2016-10-18T10:57:42.350Z,98.44
2016-10-18T10:58:55.923Z,97.96
2016-10-18T11:00:09.717Z,97.91
2016-10-18T11:01:23.261Z,97.81
2016-10-18T11:02:36.846Z,97.52
2016-10-18T11:03:50.387Z,97.04
2016-10-18T11:05:03.922Z,97.23
2016-10-18T11:06:17.697Z,96.56
2016-10-18T11:07:30.747Z,96.8
2016-10-18T11:08:44.612Z,96.46
2016-10-18T11:09:58.192Z,96.22
2016-10-18T11:11:11.779Z,96.8
2016-10-18T11:12:25.088Z,96.41
2016-10-18T11:13:38.427Z,96.22
2016-10-18T11:14:51.971Z,95.83
2016-10-18T11:16:05.502Z,95.83
2016-10-18T11:17:19.034Z,95.34
2016-10-18T11:18:31.985Z,95.54
2016-10-18T11:19:45.845Z,94.52
2016-10-18T11:20:58.597Z,93.85
2016-10-18T11:22:12.172Z,94.04
2016-10-18T11:23:25.714Z,93.94
2016-10-18T11:24:39.024Z,93.46
2016-10-18T11:25:52.684Z,93.31
2016-10-18T11:27:06.260Z,91.76
2016-10-18T11:28:19.736Z,91.28
2016-10-18T11:29:33.337Z,91.86
2016-10-18T11:30:46.910Z,90.55
2016-10-18T11:32:00.450Z,89.58
2016-10-18T11:33:13.948Z,89.77
2016-10-18T11:34:26.958Z,89.87
2016-10-18T11:35:39.967Z,88.56
2016-10-18T11:36:53.538Z,87.88
2016-10-18T11:38:07.012Z,86.04
2016-10-18T11:39:20.576Z,86.33
2016-10-18T11:40:34.203Z,86.43
2016-10-18T11:41:47.741Z,86.04
2016-10-18T11:43:01.311Z,85.46
2016-10-18T11:44:14.526Z,85.11
2016-10-18T11:45:28.166Z,84.72
2016-10-18T11:46:41.721Z,84.24
2016-10-18T11:47:54.791Z,83.99
2016-10-18T11:49:06.991Z,83.6
2016-10-18T11:50:20.010Z,82.44
2016-10-18T11:51:32.543Z,81.7
2016-10-18T11:52:45.841Z,82.09
2016-10-18T11:53:59.517Z,82.09
2016-10-18T11:55:13.146Z,82.13
2016-10-18T11:56:26.655Z,81.93
2016-10-18T11:57:40.202Z,81.51
2016-10-18T11:58:53.730Z,81.26
2016-10-18T12:00:07.260Z,81.06
2016-10-18T12:01:21.084Z,80.52
2016-10-18T12:02:34.681Z,80.52
2016-10-18T12:03:48.281Z,79.84
2016-10-18T12:05:01.249Z,79.35
2016-10-18T12:06:14.852Z,78.09
2016-10-18T12:07:28.369Z,78.23
2016-10-18T12:08:41.830Z,78.52
2016-10-18T12:09:55.466Z,77.64
2016-10-18T12:11:08.578Z,77.2
2016-10-18T12:12:22.223Z,77.48
2016-10-18T12:13:35.829Z,77.48
2016-10-18T12:14:49.342Z,77.58
2016-10-18T12:16:02.949Z,76.84
2016-10-18T12:17:16.517Z,76.65
2016-10-18T12:18:30.045Z,76.35
2016-10-18T12:19:43.592Z,75.91
2016-10-18T12:20:57.164Z,75.62
2016-10-18T12:22:10.205Z,75.13
2016-10-18T12:23:23.244Z,74.97
2016-10-18T12:24:36.879Z,74.19
2016-10-18T12:25:49.961Z,74.13
2016-10-18T12:27:03.029Z,73.65
2016-10-18T12:28:16.665Z,72.77
2016-10-18T12:29:30.291Z,72.28
2016-10-18T12:30:43.779Z,72.96
2016-10-18T12:31:57.451Z,73.29
2016-10-18T12:33:11.078Z,72.8
2016-10-18T12:34:24.373Z,72.71
2016-10-18T12:35:37.961Z,71.77
2016-10-18T12:36:51.610Z,72.25
2016-10-18T12:38:05.204Z,70.98
2016-10-18T12:39:18.939Z,70.5
2016-10-18T12:40:31.967Z,70.5
2016-10-18T12:41:45.047Z,70.6
2016-10-18T12:42:58.194Z,70.53
2016-10-18T12:44:11.706Z,70.31
2016-10-18T12:45:24.772Z,70.53
2016-10-18T12:46:38.280Z,69.95
2016-10-18T12:47:51.579Z,69.89
2016-10-18T12:49:04.071Z,69.79
2016-10-18T12:50:17.069Z,68.97
2016-10-18T12:51:30.608Z,69.36
2016-10-18T12:52:44.171Z,69.46
2016-10-18T12:53:57.760Z,69.4
2016-10-18T12:55:10.829Z,69.89
2016-10-18T12:56:23.284Z,67.87
2016-10-18T12:57:36.826Z,68.07
2016-10-18T12:58:50.309Z,67.09
2016-10-18T13:00:03.890Z,66.7
2016-10-18T13:01:17.668Z,66.83
2016-10-18T13:02:31.215Z,67.71
2016-10-18T13:03:44.793Z,67.48
2016-10-18T13:04:58.315Z,67.41
2016-10-18T13:06:10.794Z,66.83
2016-10-18T13:07:24.440Z,66.56
2016-10-18T13:08:37.539Z,66.37
2016-10-18T13:09:50.902Z,66.56
2016-10-18T13:11:03.910Z,65.46
2016-10-18T13:12:17.806Z,65.56
2016-10-18T13:13:30.316Z,65.1
2016-10-18T13:14:43.108Z,65.49
2016-10-18T13:15:56.619Z,64.28
2016-10-18T13:17:09.114Z,64.18
2016-10-18T13:18:22.055Z,63.99
2016-10-18T13:19:35.638Z,63.11
2016-10-18T13:20:48.994Z,63.01
2016-10-18T13:22:02.545Z,63.01
2016-10-18T13:23:16.104Z,61.64
2016-10-18T13:24:29.770Z,61.93
2016-10-18T13:25:42.800Z,61.28
2016-10-18T13:26:55.247Z,61.51
2016-10-18T13:28:08.787Z,60.72
2016-10-18T13:29:22.361Z,60.63
2016-10-18T13:30:35.361Z,60.33
2016-10-18T13:31:49.216Z,60.82
2016-10-18T13:33:02.458Z,61.02
2016-10-18T13:34:15.664Z,59.84
2016-10-18T13:35:29.226Z,59.67
2016-10-18T13:36:42.757Z,58.98
2016-10-18T13:37:55.772Z,60.1
2016-10-18T13:39:09.410Z,59.8
2016-10-18T13:40:22.996Z,57.38
2016-10-18T13:41:36.570Z,57.48
2016-10-18T13:42:50.148Z,56.98
2016-10-18T13:44:03.760Z,57.08
2016-10-18T13:45:17.369Z,56.13
2016-10-18T13:46:30.426Z,55.37
2016-10-18T13:47:42.905Z,54.71
2016-10-18T13:48:55.961Z,54.22
2016-10-18T13:50:09.524Z,53.73
2016-10-18T13:51:23.105Z,53.85
2016-10-18T13:52:36.725Z,53.56
2016-10-18T13:53:50.295Z,52.7
2016-10-18T13:55:03.951Z,53.53
2016-10-18T13:56:17.301Z,52.55
2016-10-18T13:57:30.337Z,51.45
2016-10-18T13:58:43.876Z,49.87
2016-10-18T13:59:57.416Z,50.66
2016-10-18T14:01:11.626Z,50.46
2016-10-18T14:02:25.286Z,48.71
2016-10-18T14:03:38.879Z,48.44
2016-10-18T14:04:52.407Z,48.07
2016-10-18T14:06:06.043Z,47.78
2016-10-18T14:07:19.189Z,46.81
2016-10-18T14:08:32.763Z,46.5
2016-10-18T14:09:46.353Z,45.21
2016-10-18T14:10:59.945Z,45.16
2016-10-18T14:12:13.467Z,45.53
2016-10-18T14:13:27.008Z,45.48
2016-10-18T14:14:40.597Z,45.1
2016-10-18T14:15:54.176Z,45.35
2016-10-18T14:17:06.752Z,44.02
2016-10-18T14:18:20.314Z,44.04
2016-10-18T14:19:33.858Z,43.94
2016-10-18T14:20:47.379Z,44.04
2016-10-18T14:22:00.940Z,44.24
2016-10-18T14:23:14.657Z,43.87
2016-10-18T14:24:27.715Z,43.49
2016-10-18T14:25:41.267Z,43.12
2016-10-18T14:26:54.309Z,42.14
2016-10-18T14:28:07.459Z,42.44
2016-10-18T14:29:20.488Z,42.44
2016-10-18T14:30:34.131Z,42.13
2016-10-18T14:31:47.700Z,42.13
2016-10-18T14:33:01.300Z,42.43
2016-10-18T14:34:15.105Z,42.58
2016-10-18T14:35:28.602Z,42.88
2016-10-18T14:36:42.132Z,43.33
2016-10-18T14:37:55.749Z,43.13
2016-10-18T14:39:09.323Z,43.92
2016-10-18T14:40:22.654Z,43.8
2016-10-18T14:41:35.655Z,43.29
2016-10-18T14:42:49.395Z,43.41
2016-10-18T14:44:02.992Z,43.9
2016-10-18T14:45:16.571Z,44.22
2016-10-18T14:46:29.553Z,44.18
2016-10-18T14:47:43.094Z,43.23
2016-10-18T14:48:55.573Z,42.46
2016-10-18T14:50:09.103Z,42.52
2016-10-18T14:51:22.037Z,42.16
2016-10-18T14:52:35.605Z,42.4
2016-10-18T14:53:48.659Z,42
2016-10-18T14:55:02.216Z,42.02
2016-10-18T14:56:16.192Z,41.95
2016-10-18T14:57:29.804Z,41.77
2016-10-18T14:58:43.373Z,40.96
2016-10-18T14:59:56.923Z,41.57
2016-10-18T15:01:10.569Z,40.92
2016-10-18T15:02:24.259Z,40.64
2016-10-18T15:03:37.893Z,40.29
2016-10-18T15:04:51.373Z,39.4
2016-10-18T15:06:04.971Z,39.36
2016-10-18T15:07:18.613Z,39.18
2016-10-18T15:08:32.221Z,39.58
2016-10-18T15:09:46.223Z,39.65
2016-10-18T15:10:59.750Z,39.87
2016-10-18T15:12:12.857Z,40.15
2016-10-18T15:13:25.962Z,40.55
2016-10-18T15:14:39.540Z,39.65
2016-10-18T15:15:53.329Z,39.12
2016-10-18T15:17:06.418Z,38.82
2016-10-18T15:18:19.937Z,39.51
2016-10-18T15:19:33.583Z,39.04
2016-10-18T15:20:47.151Z,38.8
2016-10-18T15:22:00.677Z,39.67
2016-10-18T15:23:13.761Z,40.17
2016-10-18T15:24:27.386Z,39.54
2016-10-18T15:25:40.992Z,39.43
2016-10-18T15:26:54.857Z,40.21
2016-10-18T15:28:08.387Z,39.85
2016-10-18T15:29:22.155Z,39.67
2016-10-18T15:30:35.757Z,38.7
2016-10-18T15:31:49.256Z,38.54
2016-10-18T15:33:02.787Z,37.96
2016-10-18T15:34:16.388Z,38.26
2016-10-18T15:35:29.185Z,38.54
2016-10-18T15:36:42.750Z,38.49
2016-10-18T15:37:56.370Z,38.09
2016-10-18T15:39:09.677Z,38.27
2016-10-18T15:40:23.221Z,37.2
2016-10-18T15:41:35.962Z,37.66
2016-10-18T15:42:48.439Z,37.3
2016-10-18T15:44:02.024Z,37.79
2016-10-18T15:45:15.056Z,37.68
2016-10-18T15:46:28.663Z,37.4
2016-10-18T15:47:42.371Z,36.74
2016-10-18T15:48:55.361Z,36.56
2016-10-18T15:50:07.901Z,36.32